sensor_id;sensor_type;location;lat;lon;timestamp;P1;durP1;ratioP1;P2;durP2;ratioP2
60205;SDS011;46072;51.554;6.846;2022-10-31T00:01:09;46.45;;;19.38;;
60205;SDS011;46072;51.554;6.846;2022-10-31T00:03:40;41.92;;;17.33;;
60205;SDS011;46072;51.554;6.846;2022-10-31T00:06:06;60.45;;;21.60;;
60205;SDS011;46072;51.554;6.846;2022-10-31T00:08:33;59.35;;;20.77;;
60205;SDS011;46072;51.554;6.846;2022-10-31T00:11:00;64.85;;;22.42;;
60205;SDS011;46072;51.554;6.846;2022-10-31T00:13:26;60.05;;;21.05;;
60205;SDS011;46072;51.554;6.846;2022-10-31T00:15:53;51.17;;;19.42;;
60205;SDS011;46072;51.554;6.846;2022-10-31T00:18:19;67.43;;;21.73;;
60205;SDS011;46072;51.554;6.846;2022-10-31T00:20:46;69.15;;;21.75;;
60205;SDS011;46072;51.554;6.846;2022-10-31T00:23:12;60.55;;;21.08;;
60205;SDS011;46072;51.554;6.846;2022-10-31T00:25:39;71.18;;;25.15;;
60205;SDS011;46072;51.554;6.846;2022-10-31T00:28:06;53.50;;;20.27;;
60205;SDS011;46072;51.554;6.846;2022-10-31T00:30:33;58.28;;;20.98;;
60205;SDS011;46072;51.554;6.846;2022-10-31T00:33:00;73.60;;;23.10;;
60205;SDS011;46072;51.554;6.846;2022-10-31T00:35:27;64.05;;;22.50;;
60205;SDS011;46072;51.554;6.846;2022-10-31T00:37:53;58.08;;;21.55;;
60205;SDS011;46072;51.554;6.846;2022-10-31T00:40:20;51.25;;;19.77;;
60205;SDS011;46072;51.554;6.846;2022-10-31T00:42:46;58.03;;;19.80;;
60205;SDS011;46072;51.554;6.846;2022-10-31T00:45:13;62.20;;;20.08;;
60205;SDS011;46072;51.554;6.846;2022-10-31T00:47:39;63.95;;;21.92;;
60205;SDS011;46072;51.554;6.846;2022-10-31T00:50:06;68.70;;;22.63;;
60205;SDS011;46072;51.554;6.846;2022-10-31T00:52:33;65.10;;;21.50;;
60205;SDS011;46072;51.554;6.846;2022-10-31T00:54:59;53.90;;;22.02;;
60205;SDS011;46072;51.554;6.846;2022-10-31T00:57:26;63.28;;;22.65;;
60205;SDS011;46072;51.554;6.846;2022-10-31T00:59:52;58.78;;;20.58;;
60205;SDS011;46072;51.554;6.846;2022-10-31T01:02:19;62.35;;;22.45;;
60205;SDS011;46072;51.554;6.846;2022-10-31T01:04:45;55.03;;;21.73;;
60205;SDS011;46072;51.554;6.846;2022-10-31T01:07:12;65.05;;;23.25;;
60205;SDS011;46072;51.554;6.846;2022-10-31T01:09:40;67.50;;;22.95;;
60205;SDS011;46072;51.554;6.846;2022-10-31T01:12:06;70.53;;;23.38;;
60205;SDS011;46072;51.554;6.846;2022-10-31T01:14:33;73.30;;;22.67;;
60205;SDS011;46072;51.554;6.846;2022-10-31T01:16:59;70.72;;;22.27;;
60205;SDS011;46072;51.554;6.846;2022-10-31T01:19:26;59.92;;;21.85;;
60205;SDS011;46072;51.554;6.846;2022-10-31T01:21:54;52.20;;;20.17;;
60205;SDS011;46072;51.554;6.846;2022-10-31T01:24:21;65.35;;;21.05;;
60205;SDS011;46072;51.554;6.846;2022-10-31T01:26:47;57.45;;;21.17;;
60205;SDS011;46072;51.554;6.846;2022-10-31T01:29:14;68.68;;;23.88;;
60205;SDS011;46072;51.554;6.846;2022-10-31T01:31:40;60.15;;;22.95;;
60205;SDS011;46072;51.554;6.846;2022-10-31T01:34:06;66.00;;;24.33;;
60205;SDS011;46072;51.554;6.846;2022-10-31T01:36:34;54.08;;;22.02;;
60205;SDS011;46072;51.554;6.846;2022-10-31T01:39:04;65.25;;;24.13;;
60205;SDS011;46072;51.554;6.846;2022-10-31T01:41:33;73.88;;;23.02;;
60205;SDS011;46072;51.554;6.846;2022-10-31T01:52:05;56.13;;;21.48;;
60205;SDS011;46072;51.554;6.846;2022-10-31T01:54:38;63.20;;;22.08;;
60205;SDS011;46072;51.554;6.846;2022-10-31T01:57:06;66.30;;;21.35;;
60205;SDS011;46072;51.554;6.846;2022-10-31T01:59:35;74.82;;;23.15;;
60205;SDS011;46072;51.554;6.846;2022-10-31T02:04:32;77.05;;;22.55;;
60205;SDS011;46072;51.554;6.846;2022-10-31T02:07:07;69.57;;;22.55;;
60205;SDS011;46072;51.554;6.846;2022-10-31T02:09:37;62.28;;;20.85;;
60205;SDS011;46072;51.554;6.846;2022-10-31T02:12:03;71.60;;;23.25;;
60205;SDS011;46072;51.554;6.846;2022-10-31T02:14:30;81.30;;;22.85;;
60205;SDS011;46072;51.554;6.846;2022-10-31T02:16:57;68.03;;;22.95;;
60205;SDS011;46072;51.554;6.846;2022-10-31T02:22:09;63.25;;;23.58;;
60205;SDS011;46072;51.554;6.846;2022-10-31T02:30:16;58.35;;;21.10;;
60205;SDS011;46072;51.554;6.846;2022-10-31T02:40:56;63.58;;;21.85;;
60205;SDS011;46072;51.554;6.846;2022-10-31T02:43:34;62.25;;;21.00;;
60205;SDS011;46072;51.554;6.846;2022-10-31T02:46:10;67.90;;;21.92;;
60205;SDS011;46072;51.554;6.846;2022-10-31T02:48:41;81.15;;;23.77;;
60205;SDS011;46072;51.554;6.846;2022-10-31T02:51:11;81.72;;;24.65;;
60205;SDS011;46072;51.554;6.846;2022-10-31T02:53:37;78.20;;;23.20;;
60205;SDS011;46072;51.554;6.846;2022-10-31T02:56:06;79.78;;;24.80;;
60205;SDS011;46072;51.554;6.846;2022-10-31T02:58:41;76.68;;;22.63;;
60205;SDS011;46072;51.554;6.846;2022-10-31T03:06:54;82.55;;;24.10;;
60205;SDS011;46072;51.554;6.846;2022-10-31T03:09:24;80.10;;;23.53;;
60205;SDS011;46072;51.554;6.846;2022-10-31T03:12:01;77.50;;;22.45;;
60205;SDS011;46072;51.554;6.846;2022-10-31T03:14:42;63.17;;;21.58;;
60205;SDS011;46072;51.554;6.846;2022-10-31T03:17:14;56.33;;;19.60;;
60205;SDS011;46072;51.554;6.846;2022-10-31T03:19:49;61.80;;;22.25;;
60205;SDS011;46072;51.554;6.846;2022-10-31T03:24:46;70.47;;;21.27;;
60205;SDS011;46072;51.554;6.846;2022-10-31T03:27:14;66.85;;;20.85;;
60205;SDS011;46072;51.554;6.846;2022-10-31T03:29:44;65.88;;;20.35;;
60205;SDS011;46072;51.554;6.846;2022-10-31T03:32:12;67.80;;;21.50;;
60205;SDS011;46072;51.554;6.846;2022-10-31T03:34:42;71.90;;;21.58;;
60205;SDS011;46072;51.554;6.846;2022-10-31T03:37:10;58.17;;;20.67;;
60205;SDS011;46072;51.554;6.846;2022-10-31T03:39:40;58.00;;;18.70;;
60205;SDS011;46072;51.554;6.846;2022-10-31T03:42:08;56.67;;;18.85;;
60205;SDS011;46072;51.554;6.846;2022-10-31T03:44:37;63.58;;;19.70;;
60205;SDS011;46072;51.554;6.846;2022-10-31T03:47:05;59.45;;;23.10;;
60205;SDS011;46072;51.554;6.846;2022-10-31T03:49:31;71.97;;;21.67;;
60205;SDS011;46072;51.554;6.846;2022-10-31T03:52:03;69.07;;;21.48;;
60205;SDS011;46072;51.554;6.846;2022-10-31T03:57:18;53.90;;;18.77;;
60205;SDS011;46072;51.554;6.846;2022-10-31T03:59:51;56.47;;;18.73;;
60205;SDS011;46072;51.554;6.846;2022-10-31T04:02:22;63.38;;;19.52;;
60205;SDS011;46072;51.554;6.846;2022-10-31T04:04:54;62.03;;;19.38;;
60205;SDS011;46072;51.554;6.846;2022-10-31T04:07:20;67.90;;;21.13;;
60205;SDS011;46072;51.554;6.846;2022-10-31T04:09:47;66.90;;;19.90;;
60205;SDS011;46072;51.554;6.846;2022-10-31T04:12:14;60.47;;;18.33;;
60205;SDS011;46072;51.554;6.846;2022-10-31T04:14:42;60.88;;;19.55;;
60205;SDS011;46072;51.554;6.846;2022-10-31T04:17:12;83.95;;;22.52;;
60205;SDS011;46072;51.554;6.846;2022-10-31T04:19:40;80.97;;;21.50;;
60205;SDS011;46072;51.554;6.846;2022-10-31T04:22:07;64.70;;;20.65;;
60205;SDS011;46072;51.554;6.846;2022-10-31T04:24:33;72.18;;;21.40;;
60205;SDS011;46072;51.554;6.846;2022-10-31T04:27:00;75.13;;;21.55;;
60205;SDS011;46072;51.554;6.846;2022-10-31T04:29:26;69.22;;;20.35;;
60205;SDS011;46072;51.554;6.846;2022-10-31T04:31:53;79.22;;;21.15;;
60205;SDS011;46072;51.554;6.846;2022-10-31T04:34:19;74.85;;;20.42;;
60205;SDS011;46072;51.554;6.846;2022-10-31T04:36:45;75.38;;;21.67;;
60205;SDS011;46072;51.554;6.846;2022-10-31T04:39:12;77.43;;;21.05;;
60205;SDS011;46072;51.554;6.846;2022-10-31T04:41:38;71.72;;;21.85;;
60205;SDS011;46072;51.554;6.846;2022-10-31T04:44:05;73.72;;;20.33;;
60205;SDS011;46072;51.554;6.846;2022-10-31T04:46:31;86.45;;;21.38;;
60205;SDS011;46072;51.554;6.846;2022-10-31T04:48:58;79.32;;;21.33;;
60205;SDS011;46072;51.554;6.846;2022-10-31T04:51:24;108.30;;;24.52;;
60205;SDS011;46072;51.554;6.846;2022-10-31T04:53:51;77.43;;;21.67;;
60205;SDS011;46072;51.554;6.846;2022-10-31T04:56:17;77.40;;;20.55;;
60205;SDS011;46072;51.554;6.846;2022-10-31T04:58:44;68.80;;;22.45;;
60205;SDS011;46072;51.554;6.846;2022-10-31T05:01:10;76.53;;;20.70;;
60205;SDS011;46072;51.554;6.846;2022-10-31T05:03:37;82.70;;;23.60;;
60205;SDS011;46072;51.554;6.846;2022-10-31T05:06:05;76.97;;;21.42;;
60205;SDS011;46072;51.554;6.846;2022-10-31T05:08:32;69.97;;;21.67;;
60205;SDS011;46072;51.554;6.846;2022-10-31T05:10:59;73.05;;;20.75;;
60205;SDS011;46072;51.554;6.846;2022-10-31T05:13:30;61.42;;;18.95;;
60205;SDS011;46072;51.554;6.846;2022-10-31T05:15:56;72.25;;;21.10;;
60205;SDS011;46072;51.554;6.846;2022-10-31T05:18:23;62.78;;;18.83;;
60205;SDS011;46072;51.554;6.846;2022-10-31T05:20:49;74.00;;;19.27;;
60205;SDS011;46072;51.554;6.846;2022-10-31T05:23:16;60.50;;;18.25;;
60205;SDS011;46072;51.554;6.846;2022-10-31T05:25:42;69.05;;;20.70;;
60205;SDS011;46072;51.554;6.846;2022-10-31T05:28:09;65.30;;;18.73;;
60205;SDS011;46072;51.554;6.846;2022-10-31T05:30:36;64.47;;;19.38;;
60205;SDS011;46072;51.554;6.846;2022-10-31T05:33:02;70.88;;;18.95;;
60205;SDS011;46072;51.554;6.846;2022-10-31T05:35:30;63.17;;;18.95;;
60205;SDS011;46072;51.554;6.846;2022-10-31T05:37:58;61.75;;;16.73;;
60205;SDS011;46072;51.554;6.846;2022-10-31T05:40:25;54.45;;;18.10;;
60205;SDS011;46072;51.554;6.846;2022-10-31T05:42:52;60.60;;;18.73;;
60205;SDS011;46072;51.554;6.846;2022-10-31T05:45:20;76.38;;;20.05;;
60205;SDS011;46072;51.554;6.846;2022-10-31T05:47:51;72.38;;;20.95;;
60205;SDS011;46072;51.554;6.846;2022-10-31T05:50:18;63.88;;;17.98;;
60205;SDS011;46072;51.554;6.846;2022-10-31T05:52:45;54.63;;;17.33;;
60205;SDS011;46072;51.554;6.846;2022-10-31T05:55:11;59.70;;;19.95;;
60205;SDS011;46072;51.554;6.846;2022-10-31T05:57:38;58.58;;;16.02;;
60205;SDS011;46072;51.554;6.846;2022-10-31T06:00:04;59.05;;;17.67;;
60205;SDS011;46072;51.554;6.846;2022-10-31T06:02:31;58.83;;;17.50;;
60205;SDS011;46072;51.554;6.846;2022-10-31T06:05:00;69.38;;;20.35;;
60205;SDS011;46072;51.554;6.846;2022-10-31T06:07:31;57.95;;;17.67;;
60205;SDS011;46072;51.554;6.846;2022-10-31T06:09:58;62.65;;;19.85;;
60205;SDS011;46072;51.554;6.846;2022-10-31T06:12:24;80.30;;;19.05;;
60205;SDS011;46072;51.554;6.846;2022-10-31T06:14:51;79.78;;;19.98;;
60205;SDS011;46072;51.554;6.846;2022-10-31T06:17:17;77.70;;;20.83;;
60205;SDS011;46072;51.554;6.846;2022-10-31T06:19:44;81.30;;;22.60;;
60205;SDS011;46072;51.554;6.846;2022-10-31T06:22:10;73.82;;;20.83;;
60205;SDS011;46072;51.554;6.846;2022-10-31T06:24:37;67.90;;;19.38;;
60205;SDS011;46072;51.554;6.846;2022-10-31T06:27:04;75.13;;;19.90;;
60205;SDS011;46072;51.554;6.846;2022-10-31T06:29:31;74.32;;;20.55;;
60205;SDS011;46072;51.554;6.846;2022-10-31T06:31:57;78.90;;;20.30;;
60205;SDS011;46072;51.554;6.846;2022-10-31T06:34:24;84.38;;;21.05;;
60205;SDS011;46072;51.554;6.846;2022-10-31T06:36:52;76.00;;;20.20;;
60205;SDS011;46072;51.554;6.846;2022-10-31T06:39:19;71.70;;;20.63;;
60205;SDS011;46072;51.554;6.846;2022-10-31T06:41:46;71.03;;;19.90;;
60205;SDS011;46072;51.554;6.846;2022-10-31T06:44:13;81.68;;;20.92;;
60205;SDS011;46072;51.554;6.846;2022-10-31T06:46:40;71.25;;;20.33;;
60205;SDS011;46072;51.554;6.846;2022-10-31T06:49:07;86.53;;;21.10;;
60205;SDS011;46072;51.554;6.846;2022-10-31T06:51:33;88.25;;;22.05;;
60205;SDS011;46072;51.554;6.846;2022-10-31T06:53:59;79.55;;;20.73;;
60205;SDS011;46072;51.554;6.846;2022-10-31T06:56:26;83.80;;;21.08;;
60205;SDS011;46072;51.554;6.846;2022-10-31T06:58:52;97.03;;;22.90;;
60205;SDS011;46072;51.554;6.846;2022-10-31T07:01:19;97.22;;;22.52;;
60205;SDS011;46072;51.554;6.846;2022-10-31T07:03:46;97.60;;;22.92;;
60205;SDS011;46072;51.554;6.846;2022-10-31T07:06:13;101.70;;;23.10;;
60205;SDS011;46072;51.554;6.846;2022-10-31T07:08:39;85.55;;;21.05;;
60205;SDS011;46072;51.554;6.846;2022-10-31T07:11:05;103.28;;;23.77;;
60205;SDS011;46072;51.554;6.846;2022-10-31T07:13:32;79.03;;;24.75;;
60205;SDS011;46072;51.554;6.846;2022-10-31T07:15:59;115.20;;;24.95;;
60205;SDS011;46072;51.554;6.846;2022-10-31T07:18:28;91.90;;;23.75;;
60205;SDS011;46072;51.554;6.846;2022-10-31T07:20:55;89.40;;;23.80;;
60205;SDS011;46072;51.554;6.846;2022-10-31T07:23:21;107.97;;;26.35;;
60205;SDS011;46072;51.554;6.846;2022-10-31T07:25:48;110.95;;;26.75;;
60205;SDS011;46072;51.554;6.846;2022-10-31T07:28:14;109.15;;;25.95;;
60205;SDS011;46072;51.554;6.846;2022-10-31T07:30:41;98.50;;;27.80;;
60205;SDS011;46072;51.554;6.846;2022-10-31T07:33:07;106.13;;;28.25;;
60205;SDS011;46072;51.554;6.846;2022-10-31T07:35:34;100.93;;;26.05;;
60205;SDS011;46072;51.554;6.846;2022-10-31T07:38:08;98.75;;;26.60;;
60205;SDS011;46072;51.554;6.846;2022-10-31T07:40:35;113.57;;;26.95;;
60205;SDS011;46072;51.554;6.846;2022-10-31T07:43:03;101.68;;;28.40;;
60205;SDS011;46072;51.554;6.846;2022-10-31T07:45:38;112.25;;;28.80;;
60205;SDS011;46072;51.554;6.846;2022-10-31T07:48:06;108.25;;;30.10;;
60205;SDS011;46072;51.554;6.846;2022-10-31T07:50:32;118.78;;;32.78;;
60205;SDS011;46072;51.554;6.846;2022-10-31T07:53:09;148.43;;;34.47;;
60205;SDS011;46072;51.554;6.846;2022-10-31T07:55:36;139.00;;;36.72;;
60205;SDS011;46072;51.554;6.846;2022-10-31T07:58:10;137.13;;;35.78;;
60205;SDS011;46072;51.554;6.846;2022-10-31T08:00:38;137.05;;;35.13;;
60205;SDS011;46072;51.554;6.846;2022-10-31T08:03:10;141.65;;;35.33;;
60205;SDS011;46072;51.554;6.846;2022-10-31T08:05:39;115.50;;;30.63;;
60205;SDS011;46072;51.554;6.846;2022-10-31T08:08:07;135.82;;;32.53;;
60205;SDS011;46072;51.554;6.846;2022-10-31T08:10:34;102.60;;;32.05;;
60205;SDS011;46072;51.554;6.846;2022-10-31T08:13:03;111.18;;;31.55;;
60205;SDS011;46072;51.554;6.846;2022-10-31T08:15:30;117.63;;;34.53;;
60205;SDS011;46072;51.554;6.846;2022-10-31T08:17:57;106.97;;;34.55;;
60205;SDS011;46072;51.554;6.846;2022-10-31T08:20:24;122.43;;;33.17;;
60205;SDS011;46072;51.554;6.846;2022-10-31T08:22:58;105.03;;;31.67;;
60205;SDS011;46072;51.554;6.846;2022-10-31T08:25:28;112.50;;;32.65;;
60205;SDS011;46072;51.554;6.846;2022-10-31T08:28:03;113.60;;;32.58;;
60205;SDS011;46072;51.554;6.846;2022-10-31T08:30:31;106.72;;;32.72;;
60205;SDS011;46072;51.554;6.846;2022-10-31T08:33:06;95.75;;;31.95;;
60205;SDS011;46072;51.554;6.846;2022-10-31T08:35:38;106.80;;;32.72;;
60205;SDS011;46072;51.554;6.846;2022-10-31T08:38:04;118.47;;;33.38;;
60205;SDS011;46072;51.554;6.846;2022-10-31T08:40:32;123.97;;;38.30;;
60205;SDS011;46072;51.554;6.846;2022-10-31T08:43:20;113.07;;;34.40;;
60205;SDS011;46072;51.554;6.846;2022-10-31T08:45:47;109.00;;;33.53;;
60205;SDS011;46072;51.554;6.846;2022-10-31T08:48:15;106.25;;;32.95;;
60205;SDS011;46072;51.554;6.846;2022-10-31T08:50:43;96.80;;;33.10;;
60205;SDS011;46072;51.554;6.846;2022-10-31T08:53:14;104.10;;;35.53;;
60205;SDS011;46072;51.554;6.846;2022-10-31T08:55:42;108.05;;;32.40;;
60205;SDS011;46072;51.554;6.846;2022-10-31T08:58:10;115.32;;;37.53;;
60205;SDS011;46072;51.554;6.846;2022-10-31T09:00:37;130.90;;;39.58;;
60205;SDS011;46072;51.554;6.846;2022-10-31T09:03:08;105.63;;;37.63;;
60205;SDS011;46072;51.554;6.846;2022-10-31T09:05:36;94.45;;;32.90;;
60205;SDS011;46072;51.554;6.846;2022-10-31T09:08:03;91.50;;;33.88;;
60205;SDS011;46072;51.554;6.846;2022-10-31T09:10:31;93.75;;;34.95;;
60205;SDS011;46072;51.554;6.846;2022-10-31T09:13:04;107.90;;;35.67;;
60205;SDS011;46072;51.554;6.846;2022-10-31T09:15:36;93.70;;;33.05;;
60205;SDS011;46072;51.554;6.846;2022-10-31T09:18:05;89.90;;;32.47;;
60205;SDS011;46072;51.554;6.846;2022-10-31T09:20:32;85.00;;;32.50;;
60205;SDS011;46072;51.554;6.846;2022-10-31T09:23:03;85.03;;;31.48;;
60205;SDS011;46072;51.554;6.846;2022-10-31T09:25:32;87.43;;;33.05;;
60205;SDS011;46072;51.554;6.846;2022-10-31T09:27:59;90.43;;;31.45;;
60205;SDS011;46072;51.554;6.846;2022-10-31T09:30:28;78.97;;;28.70;;
60205;SDS011;46072;51.554;6.846;2022-10-31T09:32:56;74.85;;;27.33;;
60205;SDS011;46072;51.554;6.846;2022-10-31T09:35:23;74.78;;;30.63;;
60205;SDS011;46072;51.554;6.846;2022-10-31T09:38:10;75.00;;;29.45;;
60205;SDS011;46072;51.554;6.846;2022-10-31T09:40:48;72.85;;;28.27;;
60205;SDS011;46072;51.554;6.846;2022-10-31T09:43:44;67.07;;;28.63;;
60205;SDS011;46072;51.554;6.846;2022-10-31T09:54:34;71.03;;;29.42;;
60205;SDS011;46072;51.554;6.846;2022-10-31T09:57:04;70.80;;;28.63;;
60205;SDS011;46072;51.554;6.846;2022-10-31T09:59:33;69.97;;;28.08;;
60205;SDS011;46072;51.554;6.846;2022-10-31T10:02:02;65.55;;;26.15;;
60205;SDS011;46072;51.554;6.846;2022-10-31T10:07:28;78.18;;;27.08;;
60205;SDS011;46072;51.554;6.846;2022-10-31T10:09:59;77.93;;;29.10;;
60205;SDS011;46072;51.554;6.846;2022-10-31T10:15:00;80.93;;;28.45;;
60205;SDS011;46072;51.554;6.846;2022-10-31T10:20:43;67.43;;;27.02;;
60205;SDS011;46072;51.554;6.846;2022-10-31T10:26:18;66.38;;;27.40;;
60205;SDS011;46072;51.554;6.846;2022-10-31T10:28:47;77.47;;;28.88;;
60205;SDS011;46072;51.554;6.846;2022-10-31T10:31:16;73.60;;;27.27;;
60205;SDS011;46072;51.554;6.846;2022-10-31T10:33:51;73.38;;;27.50;;
60205;SDS011;46072;51.554;6.846;2022-10-31T10:36:52;65.97;;;27.38;;
60205;SDS011;46072;51.554;6.846;2022-10-31T10:39:27;80.53;;;28.90;;
60205;SDS011;46072;51.554;6.846;2022-10-31T10:41:57;78.78;;;29.52;;
60205;SDS011;46072;51.554;6.846;2022-10-31T10:44:44;77.85;;;27.35;;
60205;SDS011;46072;51.554;6.846;2022-10-31T10:47:34;81.05;;;29.90;;
60205;SDS011;46072;51.554;6.846;2022-10-31T10:50:25;81.80;;;30.02;;
60205;SDS011;46072;51.554;6.846;2022-10-31T10:53:10;83.45;;;28.20;;
60205;SDS011;46072;51.554;6.846;2022-10-31T10:55:56;79.70;;;28.67;;
60205;SDS011;46072;51.554;6.846;2022-10-31T10:58:26;81.53;;;26.95;;
60205;SDS011;46072;51.554;6.846;2022-10-31T11:00:52;74.10;;;26.40;;
60205;SDS011;46072;51.554;6.846;2022-10-31T11:03:20;74.97;;;27.85;;
60205;SDS011;46072;51.554;6.846;2022-10-31T11:05:53;67.95;;;25.35;;
60205;SDS011;46072;51.554;6.846;2022-10-31T11:08:28;83.40;;;28.55;;
60205;SDS011;46072;51.554;6.846;2022-10-31T11:13:43;77.80;;;25.00;;
60205;SDS011;46072;51.554;6.846;2022-10-31T11:16:13;82.10;;;27.70;;
60205;SDS011;46072;51.554;6.846;2022-10-31T11:18:42;72.28;;;25.85;;
60205;SDS011;46072;51.554;6.846;2022-10-31T11:21:23;73.53;;;25.40;;
60205;SDS011;46072;51.554;6.846;2022-10-31T11:24:02;74.97;;;27.08;;
60205;SDS011;46072;51.554;6.846;2022-10-31T11:26:49;72.40;;;26.70;;
60205;SDS011;46072;51.554;6.846;2022-10-31T11:31:52;66.45;;;26.33;;
60205;SDS011;46072;51.554;6.846;2022-10-31T11:34:26;71.03;;;25.65;;
60205;SDS011;46072;51.554;6.846;2022-10-31T11:36:58;73.72;;;28.60;;
60205;SDS011;46072;51.554;6.846;2022-10-31T11:39:29;74.07;;;26.58;;
60205;SDS011;46072;51.554;6.846;2022-10-31T11:41:59;70.15;;;26.25;;
60205;SDS011;46072;51.554;6.846;2022-10-31T11:44:33;64.10;;;26.73;;
60205;SDS011;46072;51.554;6.846;2022-10-31T11:47:01;70.53;;;26.65;;
60205;SDS011;46072;51.554;6.846;2022-10-31T11:49:30;59.88;;;23.65;;
60205;SDS011;46072;51.554;6.846;2022-10-31T11:52:05;70.68;;;27.55;;
60205;SDS011;46072;51.554;6.846;2022-10-31T11:54:36;63.22;;;24.48;;
60205;SDS011;46072;51.554;6.846;2022-10-31T11:57:27;75.47;;;26.33;;
60205;SDS011;46072;51.554;6.846;2022-10-31T12:00:26;59.97;;;23.55;;
60205;SDS011;46072;51.554;6.846;2022-10-31T12:05:36;63.33;;;24.45;;
60205;SDS011;46072;51.554;6.846;2022-10-31T12:08:06;66.72;;;22.13;;
60205;SDS011;46072;51.554;6.846;2022-10-31T12:11:08;58.90;;;23.00;;
60205;SDS011;46072;51.554;6.846;2022-10-31T12:14:00;78.43;;;24.10;;
60205;SDS011;46072;51.554;6.846;2022-10-31T12:16:49;59.47;;;22.90;;
60205;SDS011;46072;51.554;6.846;2022-10-31T12:22:27;54.03;;;22.45;;
60205;SDS011;46072;51.554;6.846;2022-10-31T12:33:16;59.58;;;22.60;;
60205;SDS011;46072;51.554;6.846;2022-10-31T12:50:00;50.38;;;21.63;;
60205;SDS011;46072;51.554;6.846;2022-10-31T12:55:37;52.25;;;21.05;;
60205;SDS011;46072;51.554;6.846;2022-10-31T12:58:11;52.88;;;20.77;;
60205;SDS011;46072;51.554;6.846;2022-10-31T13:00:46;46.22;;;20.05;;
60205;SDS011;46072;51.554;6.846;2022-10-31T13:03:25;45.90;;;19.33;;
60205;SDS011;46072;51.554;6.846;2022-10-31T13:05:56;46.42;;;20.55;;
60205;SDS011;46072;51.554;6.846;2022-10-31T13:11:10;52.13;;;19.58;;
60205;SDS011;46072;51.554;6.846;2022-10-31T13:13:41;55.65;;;20.55;;
60205;SDS011;46072;51.554;6.846;2022-10-31T13:16:12;50.55;;;18.88;;
60205;SDS011;46072;51.554;6.846;2022-10-31T13:18:52;49.30;;;18.67;;
60205;SDS011;46072;51.554;6.846;2022-10-31T13:21:23;49.78;;;20.67;;
60205;SDS011;46072;51.554;6.846;2022-10-31T13:23:51;52.67;;;18.65;;
60205;SDS011;46072;51.554;6.846;2022-10-31T13:26:33;55.00;;;19.25;;
60205;SDS011;46072;51.554;6.846;2022-10-31T13:29:39;49.58;;;19.00;;
60205;SDS011;46072;51.554;6.846;2022-10-31T13:32:10;45.60;;;17.50;;
60205;SDS011;46072;51.554;6.846;2022-10-31T13:34:40;49.08;;;21.15;;
60205;SDS011;46072;51.554;6.846;2022-10-31T13:37:15;51.63;;;19.85;;
60205;SDS011;46072;51.554;6.846;2022-10-31T13:40:30;52.97;;;17.58;;
60205;SDS011;46072;51.554;6.846;2022-10-31T13:45:33;48.55;;;19.25;;
60205;SDS011;46072;51.554;6.846;2022-10-31T13:48:18;47.83;;;17.65;;
60205;SDS011;46072;51.554;6.846;2022-10-31T13:50:55;48.17;;;18.33;;
60205;SDS011;46072;51.554;6.846;2022-10-31T13:56:33;47.72;;;18.95;;
60205;SDS011;46072;51.554;6.846;2022-10-31T14:01:35;57.55;;;19.63;;
60205;SDS011;46072;51.554;6.846;2022-10-31T14:04:07;51.35;;;18.30;;
60205;SDS011;46072;51.554;6.846;2022-10-31T14:06:55;49.13;;;18.15;;
60205;SDS011;46072;51.554;6.846;2022-10-31T14:09:28;50.92;;;17.92;;
60205;SDS011;46072;51.554;6.846;2022-10-31T14:11:57;41.95;;;18.02;;
60205;SDS011;46072;51.554;6.846;2022-10-31T14:14:28;45.97;;;17.85;;
60205;SDS011;46072;51.554;6.846;2022-10-31T14:16:58;57.17;;;16.77;;
60205;SDS011;46072;51.554;6.846;2022-10-31T14:19:25;58.53;;;18.15;;
60205;SDS011;46072;51.554;6.846;2022-10-31T14:21:52;41.13;;;16.40;;
60205;SDS011;46072;51.554;6.846;2022-10-31T14:29:25;44.80;;;17.25;;
60205;SDS011;46072;51.554;6.846;2022-10-31T14:45:56;37.70;;;15.80;;
60205;SDS011;46072;51.554;6.846;2022-10-31T14:51:20;44.80;;;16.15;;
60205;SDS011;46072;51.554;6.846;2022-10-31T14:53:55;42.03;;;16.00;;
60205;SDS011;46072;51.554;6.846;2022-10-31T14:56:29;38.15;;;15.05;;
60205;SDS011;46072;51.554;6.846;2022-10-31T14:58:58;40.13;;;16.90;;
60205;SDS011;46072;51.554;6.846;2022-10-31T15:01:27;42.47;;;16.75;;
60205;SDS011;46072;51.554;6.846;2022-10-31T15:04:16;47.20;;;17.02;;
60205;SDS011;46072;51.554;6.846;2022-10-31T15:07:00;48.85;;;16.85;;
60205;SDS011;46072;51.554;6.846;2022-10-31T15:09:32;49.28;;;16.60;;
60205;SDS011;46072;51.554;6.846;2022-10-31T15:12:22;41.25;;;15.52;;
60205;SDS011;46072;51.554;6.846;2022-10-31T15:17:18;49.25;;;15.80;;
60205;SDS011;46072;51.554;6.846;2022-10-31T15:19:45;42.45;;;16.80;;
60205;SDS011;46072;51.554;6.846;2022-10-31T15:22:16;39.08;;;16.00;;
60205;SDS011;46072;51.554;6.846;2022-10-31T15:24:44;44.47;;;16.63;;
60205;SDS011;46072;51.554;6.846;2022-10-31T15:27:15;41.63;;;16.40;;
60205;SDS011;46072;51.554;6.846;2022-10-31T15:29:49;46.45;;;17.50;;
60205;SDS011;46072;51.554;6.846;2022-10-31T15:34:46;41.50;;;16.67;;
60205;SDS011;46072;51.554;6.846;2022-10-31T15:37:14;40.72;;;15.95;;
60205;SDS011;46072;51.554;6.846;2022-10-31T15:39:42;44.78;;;16.30;;
60205;SDS011;46072;51.554;6.846;2022-10-31T15:45:05;51.95;;;16.85;;
60205;SDS011;46072;51.554;6.846;2022-10-31T15:47:48;45.10;;;16.88;;
60205;SDS011;46072;51.554;6.846;2022-10-31T15:50:37;40.17;;;16.65;;
60205;SDS011;46072;51.554;6.846;2022-10-31T15:53:17;45.28;;;17.65;;
60205;SDS011;46072;51.554;6.846;2022-10-31T15:56:06;42.45;;;14.98;;
60205;SDS011;46072;51.554;6.846;2022-10-31T15:58:39;108.40;;;22.50;;
60205;SDS011;46072;51.554;6.846;2022-10-31T16:01:20;51.78;;;15.88;;
60205;SDS011;46072;51.554;6.846;2022-10-31T16:03:56;48.78;;;15.43;;
60205;SDS011;46072;51.554;6.846;2022-10-31T16:06:25;47.38;;;14.90;;
60205;SDS011;46072;51.554;6.846;2022-10-31T16:08:51;40.88;;;13.18;;
60205;SDS011;46072;51.554;6.846;2022-10-31T16:11:23;44.33;;;14.82;;
60205;SDS011;46072;51.554;6.846;2022-10-31T16:16:50;202.95;;;31.55;;
60205;SDS011;46072;51.554;6.846;2022-10-31T16:19:20;88.75;;;19.10;;
60205;SDS011;46072;51.554;6.846;2022-10-31T16:22:09;87.55;;;20.05;;
60205;SDS011;46072;51.554;6.846;2022-10-31T16:25:25;48.83;;;15.25;;
60205;SDS011;46072;51.554;6.846;2022-10-31T16:27:35;47.90;;;16.25;;
60205;SDS011;46072;51.554;6.846;2022-10-31T16:30:26;173.88;;;26.70;;
60205;SDS011;46072;51.554;6.846;2022-10-31T16:39:01;48.40;;;18.67;;
60205;SDS011;46072;51.554;6.846;2022-10-31T16:41:27;54.97;;;18.73;;
60205;SDS011;46072;51.554;6.846;2022-10-31T16:43:54;42.15;;;18.25;;
60205;SDS011;46072;51.554;6.846;2022-10-31T16:46:25;59.40;;;18.67;;
60205;SDS011;46072;51.554;6.846;2022-10-31T16:48:52;49.15;;;17.15;;
60205;SDS011;46072;51.554;6.846;2022-10-31T16:51:19;51.05;;;17.27;;
60205;SDS011;46072;51.554;6.846;2022-10-31T16:53:45;44.20;;;16.38;;
60205;SDS011;46072;51.554;6.846;2022-10-31T16:56:16;55.38;;;18.98;;
60205;SDS011;46072;51.554;6.846;2022-10-31T16:58:44;56.63;;;18.33;;
60205;SDS011;46072;51.554;6.846;2022-10-31T17:01:11;45.47;;;17.63;;
60205;SDS011;46072;51.554;6.846;2022-10-31T17:03:38;52.58;;;18.92;;
60205;SDS011;46072;51.554;6.846;2022-10-31T17:06:08;43.15;;;17.52;;